createdAt,value
2022-12-18T00:02:13.650Z,28.01
2022-12-18T00:04:44.244Z,28.03
2022-12-18T00:07:15.036Z,28.10
2022-12-18T00:09:45.766Z,28.26
2022-12-18T00:14:52.558Z,28.44
2022-12-18T00:17:23.016Z,28.55
2022-12-18T00:19:53.387Z,28.60
2022-12-18T00:22:23.837Z,28.64
2022-12-18T00:24:54.336Z,28.67
2022-12-18T00:27:26.961Z,28.74
2022-12-18T00:29:57.571Z,28.74
2022-12-18T00:32:28.062Z,28.76
2022-12-18T00:34:58.434Z,28.81
2022-12-18T00:37:28.917Z,28.73
2022-12-18T00:39:59.964Z,28.81
2022-12-18T00:42:50.660Z,28.81
2022-12-18T00:45:21.176Z,28.89
2022-12-18T00:47:51.763Z,28.89
2022-12-18T00:50:22.771Z,28.94
2022-12-18T00:52:53.830Z,29.05
2022-12-18T00:55:24.234Z,29.07
2022-12-18T00:57:55.069Z,29.08
2022-12-18T01:00:26.837Z,29.15
2022-12-18T01:02:57.221Z,29.16
2022-12-18T01:05:28.548Z,29.18
2022-12-18T01:08:00.502Z,29.25
2022-12-18T01:10:30.775Z,29.22
2022-12-18T01:13:01.618Z,29.26
2022-12-18T01:15:32.368Z,29.33
2022-12-18T01:18:03.199Z,29.34
2022-12-18T01:20:34.640Z,29.41
2022-12-18T01:23:05.982Z,29.37
2022-12-18T01:25:40.803Z,29.37
2022-12-18T01:28:13.784Z,29.32
2022-12-18T01:30:44.780Z,29.32
2022-12-18T01:33:16.556Z,29.33
2022-12-18T01:35:47.312Z,29.32
2022-12-18T01:38:18.118Z,29.38
2022-12-18T01:40:53.671Z,29.39
2022-12-18T01:43:24.425Z,29.42
2022-12-18T01:45:55.066Z,29.45
2022-12-18T01:48:27.589Z,29.49
2022-12-18T01:50:57.792Z,29.50
2022-12-18T01:53:28.320Z,29.53
2022-12-18T01:56:00.508Z,29.51
2022-12-18T01:58:44.236Z,29.48
2022-12-18T02:01:15.284Z,29.47
2022-12-18T02:03:46.537Z,29.45
2022-12-18T02:06:29.260Z,29.45
2022-12-18T02:09:11.772Z,29.47
2022-12-18T02:11:45.052Z,29.49
2022-12-18T02:14:27.902Z,29.47
2022-12-18T02:17:22.224Z,29.48
2022-12-18T02:20:21.047Z,29.50
2022-12-18T02:23:40.636Z,29.46
2022-12-18T02:26:29.234Z,29.50
2022-12-18T02:29:05.925Z,29.49
2022-12-18T02:31:45.026Z,29.50
2022-12-18T02:34:16.222Z,29.50
2022-12-18T02:36:48.839Z,29.55
2022-12-18T02:39:20.473Z,29.58
2022-12-18T02:42:04.297Z,29.63
2022-12-18T02:44:34.984Z,29.73
2022-12-18T02:47:08.267Z,29.75
2022-12-18T02:49:58.266Z,29.73
2022-12-18T02:52:44.747Z,29.70
2022-12-18T02:55:25.360Z,29.72
2022-12-18T02:58:22.155Z,29.71
2022-12-18T03:01:25.168Z,29.66
2022-12-18T03:04:04.788Z,29.77
2022-12-18T03:06:40.167Z,29.84
2022-12-18T03:09:34.861Z,29.96
2022-12-18T03:12:26.330Z,30.07
2022-12-18T03:15:05.934Z,30.07
2022-12-18T03:17:36.577Z,30.07
2022-12-18T03:20:15.839Z,30.13
2022-12-18T03:22:49.021Z,30.09
2022-12-18T03:25:21.073Z,30.11
2022-12-18T03:27:55.560Z,30.15
2022-12-18T03:30:26.490Z,30.11
2022-12-18T03:33:11.438Z,30.25
2022-12-18T03:35:46.902Z,30.19
2022-12-18T03:38:17.476Z,30.17
2022-12-18T03:41:27.380Z,30.24
2022-12-18T03:44:39.329Z,30.23
2022-12-18T03:47:20.054Z,30.24
2022-12-18T03:50:00.469Z,30.18
2022-12-18T03:52:44.554Z,30.25
2022-12-18T03:55:15.445Z,30.23
2022-12-18T03:57:50.408Z,30.26
2022-12-18T04:00:22.956Z,30.23
2022-12-18T04:03:08.953Z,30.29
2022-12-18T04:05:46.594Z,30.38
2022-12-18T04:08:18.315Z,30.39
2022-12-18T04:10:57.267Z,30.46
2022-12-18T04:13:36.676Z,30.47
2022-12-18T04:16:11.629Z,30.39
2022-12-18T04:18:45.338Z,30.34
2022-12-18T04:21:21.150Z,30.30
2022-12-18T04:23:53.073Z,30.38
2022-12-18T04:26:25.649Z,30.32
2022-12-18T04:29:20.580Z,30.32
2022-12-18T04:31:52.195Z,30.22
2022-12-18T04:34:24.571Z,30.15
2022-12-18T04:36:57.386Z,30.06
2022-12-18T04:39:29.630Z,30.20
2022-12-18T04:42:04.316Z,30.31
2022-12-18T04:44:34.827Z,30.28
2022-12-18T04:47:05.904Z,30.39
2022-12-18T04:49:36.517Z,30.39
2022-12-18T04:52:07.163Z,30.43
2022-12-18T04:54:37.682Z,30.39
2022-12-18T04:57:07.967Z,30.34
2022-12-18T04:59:38.696Z,30.38
2022-12-18T05:02:09.547Z,30.33
2022-12-18T05:04:39.924Z,30.28
2022-12-18T05:07:11.050Z,30.19
2022-12-18T05:09:42.217Z,30.18
2022-12-18T05:12:13.696Z,30.18
2022-12-18T05:14:46.545Z,30.09
2022-12-18T05:17:17.384Z,30.18
2022-12-18T05:19:48.150Z,30.24
2022-12-18T05:22:18.674Z,30.33
2022-12-18T05:24:49.269Z,30.23
2022-12-18T05:27:21.291Z,30.26
2022-12-18T05:29:51.843Z,30.31
2022-12-18T05:32:22.307Z,30.30
2022-12-18T05:34:52.922Z,30.31
2022-12-18T05:37:23.250Z,30.27
2022-12-18T05:39:54.231Z,30.22
2022-12-18T05:42:24.726Z,30.21
2022-12-18T05:44:55.686Z,30.22
2022-12-18T05:47:25.903Z,30.19
2022-12-18T05:49:56.350Z,30.22
2022-12-18T05:52:27.130Z,30.26
2022-12-18T05:54:58.191Z,30.23
2022-12-18T05:57:28.475Z,30.38
2022-12-18T05:59:59.683Z,30.52
2022-12-18T06:02:30.718Z,30.53
2022-12-18T06:05:01.432Z,30.47
2022-12-18T06:07:31.701Z,30.52
2022-12-18T06:10:04.725Z,30.45
2022-12-18T06:12:35.886Z,30.63
2022-12-18T06:15:07.306Z,30.77
2022-12-18T06:17:37.894Z,30.85
2022-12-18T06:20:09.112Z,30.76
2022-12-18T06:22:39.484Z,30.72
2022-12-18T06:25:10.670Z,30.66
2022-12-18T06:27:41.653Z,30.65
2022-12-18T06:30:14.442Z,30.63
2022-12-18T06:32:45.373Z,30.56
2022-12-18T06:35:19.689Z,30.54
2022-12-18T06:37:51.388Z,30.44
2022-12-18T06:40:22.898Z,30.45
2022-12-18T06:42:54.183Z,30.37
2022-12-18T06:45:26.539Z,30.39
2022-12-18T06:47:57.592Z,30.33
2022-12-18T06:50:29.550Z,30.30
2022-12-18T06:52:59.944Z,30.33
2022-12-18T06:55:30.929Z,30.34
2022-12-18T06:58:01.267Z,30.29
2022-12-18T07:00:31.934Z,30.24
2022-12-18T07:03:02.860Z,30.22
2022-12-18T07:05:33.449Z,30.27
2022-12-18T07:08:04.608Z,30.33
2022-12-18T07:10:35.268Z,30.38
2022-12-18T07:13:06.408Z,30.36
2022-12-18T07:15:37.180Z,30.44
2022-12-18T07:18:07.430Z,30.41
2022-12-18T07:20:38.843Z,30.44
2022-12-18T07:23:09.413Z,30.44
2022-12-18T07:25:39.892Z,30.42
2022-12-18T07:28:17.051Z,30.32
2022-12-18T07:30:57.846Z,30.36
2022-12-18T07:33:28.692Z,30.36
2022-12-18T07:36:05.707Z,30.24
2022-12-18T07:38:37.573Z,30.28
2022-12-18T07:41:10.745Z,30.28
2022-12-18T07:43:42.537Z,30.24
2022-12-18T07:46:15.733Z,30.17
2022-12-18T07:48:49.879Z,30.07
2022-12-18T07:51:21.271Z,30.05
2022-12-18T07:53:54.477Z,30.04
2022-12-18T07:56:28.692Z,30.03
2022-12-18T07:59:02.228Z,30.01
2022-12-18T08:01:36.852Z,29.91
2022-12-18T08:04:09.007Z,29.97
2022-12-18T08:06:47.445Z,29.96
2022-12-18T08:09:18.989Z,29.96
2022-12-18T08:11:49.229Z,29.90
2022-12-18T08:14:21.911Z,29.88
2022-12-18T08:16:52.614Z,29.82
2022-12-18T08:19:23.798Z,29.81
2022-12-18T08:21:54.320Z,29.76
2022-12-18T08:24:24.932Z,29.78
2022-12-18T08:27:20.885Z,29.70
2022-12-18T08:29:46.251Z,29.73
2022-12-18T08:32:17.018Z,29.69
2022-12-18T08:34:47.521Z,29.67
2022-12-18T08:37:17.829Z,29.59
2022-12-18T08:39:48.073Z,29.61
2022-12-18T08:42:36.980Z,29.56
2022-12-18T08:45:07.642Z,29.49
2022-12-18T08:47:38.249Z,29.50
2022-12-18T08:50:09.643Z,29.47
2022-12-18T08:52:40.203Z,29.47
2022-12-18T08:55:11.557Z,29.41
2022-12-18T08:57:42.038Z,29.36
2022-12-18T09:00:15.082Z,29.40
2022-12-18T09:02:46.340Z,29.35
2022-12-18T09:05:17.091Z,29.32
2022-12-18T09:07:47.721Z,29.32
2022-12-18T09:10:18.155Z,29.24
2022-12-18T09:12:49.613Z,29.22
2022-12-18T09:15:20.583Z,29.17
2022-12-18T09:17:52.471Z,29.21
2022-12-18T09:20:22.815Z,29.20
2022-12-18T09:22:53.006Z,29.21
2022-12-18T09:25:26.184Z,29.19
2022-12-18T09:27:56.906Z,29.27
2022-12-18T09:30:27.153Z,29.21
2022-12-18T09:32:58.206Z,29.16
2022-12-18T09:35:29.835Z,29.25
2022-12-18T09:38:00.178Z,29.22
2022-12-18T09:40:37.457Z,29.14
2022-12-18T09:43:09.540Z,29.08
2022-12-18T09:46:00.489Z,29.18
2022-12-18T09:48:38.858Z,29.21
2022-12-18T09:51:24.549Z,29.17
2022-12-18T09:54:00.239Z,29.25
2022-12-18T09:56:34.413Z,29.18
2022-12-18T09:59:07.619Z,29.19
2022-12-18T10:01:44.147Z,29.15
2022-12-18T10:04:15.248Z,29.13
2022-12-18T10:07:08.798Z,29.12
2022-12-18T10:09:45.605Z,29.08
2022-12-18T10:12:25.282Z,29.11
2022-12-18T10:15:16.687Z,29.02
2022-12-18T10:18:08.984Z,29.08
2022-12-18T10:20:46.858Z,29.00
2022-12-18T10:24:00.765Z,28.95
2022-12-18T10:26:31.253Z,28.95
2022-12-18T10:29:05.492Z,28.97
2022-12-18T10:31:36.672Z,28.95
2022-12-18T10:34:13.467Z,28.92
2022-12-18T10:36:44.881Z,28.92
2022-12-18T10:39:25.366Z,28.93
2022-12-18T10:42:13.751Z,28.93
2022-12-18T10:44:44.132Z,28.88
2022-12-18T10:47:20.608Z,28.85
2022-12-18T10:49:54.032Z,28.86
2022-12-18T10:52:26.726Z,28.87
2022-12-18T10:55:04.705Z,28.84
2022-12-18T10:57:40.630Z,28.87
2022-12-18T11:00:32.152Z,28.84
2022-12-18T11:03:02.558Z,28.80
2022-12-18T11:05:38.864Z,28.82
2022-12-18T11:08:24.642Z,28.79
2022-12-18T11:10:55.244Z,28.79
2022-12-18T11:13:28.891Z,28.79
2022-12-18T11:16:00.249Z,28.80
2022-12-18T11:18:33.983Z,28.78
2022-12-18T11:21:15.447Z,28.71
2022-12-18T11:23:56.457Z,28.74
2022-12-18T11:26:37.781Z,28.72
2022-12-18T11:29:13.077Z,28.76
2022-12-18T11:31:43.645Z,28.71
2022-12-18T11:34:33.164Z,28.67
2022-12-18T11:37:05.843Z,28.66
2022-12-18T11:39:46.293Z,28.59
2022-12-18T11:42:25.349Z,28.64
2022-12-18T11:45:01.662Z,28.67
2022-12-18T11:47:41.450Z,28.63
2022-12-18T11:50:21.612Z,28.64
2022-12-18T11:52:57.329Z,28.72
2022-12-18T11:55:48.357Z,28.72
2022-12-18T11:58:31.714Z,28.72
2022-12-18T12:01:17.077Z,28.61
2022-12-18T12:04:16.876Z,28.79
2022-12-18T12:06:58.640Z,28.81
2022-12-18T12:09:55.321Z,28.81
2022-12-18T12:12:48.962Z,28.83
2022-12-18T12:15:32.811Z,28.90
2022-12-18T12:18:12.170Z,28.91
2022-12-18T12:20:48.224Z,28.87
2022-12-18T12:23:37.462Z,28.74
2022-12-18T12:27:12.528Z,28.91
2022-12-18T12:29:49.083Z,28.83
2022-12-18T12:32:38.509Z,28.81
2022-12-18T12:35:36.357Z,28.79
2022-12-18T12:38:17.997Z,28.83
2022-12-18T12:41:02.793Z,28.79
2022-12-18T12:43:49.835Z,28.91
2022-12-18T12:46:22.753Z,28.91
2022-12-18T12:48:58.784Z,28.95
2022-12-18T12:51:36.466Z,28.88
2022-12-18T12:54:14.331Z,28.87
2022-12-18T12:57:15.164Z,28.81
2022-12-18T13:00:06.690Z,28.89
2022-12-18T13:03:04.921Z,28.84
2022-12-18T13:05:46.772Z,28.79
2022-12-18T13:12:04.550Z,28.80
2022-12-18T13:14:39.212Z,28.82
2022-12-18T13:17:22.282Z,28.99
2022-12-18T13:20:17.755Z,29.08
2022-12-18T13:22:51.179Z,29.03
2022-12-18T13:25:38.970Z,29.08
2022-12-18T13:28:14.762Z,29.06
2022-12-18T13:30:50.832Z,29.08
2022-12-18T13:33:29.650Z,29.08
2022-12-18T13:36:11.947Z,29.04
2022-12-18T13:38:43.844Z,29.01
2022-12-18T13:41:20.344Z,29.02
2022-12-18T13:43:55.694Z,28.98
2022-12-18T13:46:33.046Z,29.00
2022-12-18T13:49:09.637Z,29.00
2022-12-18T13:51:55.413Z,28.99
2022-12-18T13:54:28.765Z,28.96
2022-12-18T13:56:59.544Z,28.86
2022-12-18T13:59:41.994Z,28.79
2022-12-18T14:02:20.863Z,28.84
2022-12-18T14:04:52.294Z,28.87
2022-12-18T14:07:27.164Z,28.84
2022-12-18T14:13:01.124Z,28.84
2022-12-18T14:15:46.198Z,28.82
2022-12-18T14:18:34.313Z,28.71
2022-12-18T14:21:05.730Z,28.70
2022-12-18T14:23:41.943Z,28.67
2022-12-18T14:26:42.393Z,28.66
2022-12-18T14:29:28.849Z,28.60
2022-12-18T14:32:30.461Z,28.61
2022-12-18T14:35:00.936Z,28.61
2022-12-18T14:37:31.395Z,28.61
2022-12-18T14:40:10.945Z,28.65
2022-12-18T14:42:44.813Z,28.65
2022-12-18T14:45:51.644Z,28.71
2022-12-18T14:48:27.153Z,28.65
2022-12-18T14:51:06.424Z,28.66
2022-12-18T14:53:50.497Z,28.64
2022-12-18T14:56:26.653Z,28.61
2022-12-18T14:59:08.227Z,28.64
2022-12-18T15:02:04.020Z,28.69
2022-12-18T15:04:44.013Z,28.65
2022-12-18T15:07:24.335Z,28.66
2022-12-18T15:10:12.947Z,28.67
2022-12-18T15:12:47.311Z,28.66
2022-12-18T15:15:40.071Z,28.64
2022-12-18T15:18:20.152Z,28.61
2022-12-18T15:21:00.926Z,28.64
2022-12-18T15:23:31.449Z,28.54
2022-12-18T15:26:10.277Z,28.60
2022-12-18T15:28:48.886Z,28.62
2022-12-18T15:31:19.565Z,28.59
2022-12-18T15:33:54.268Z,28.58
2022-12-18T15:36:27.039Z,28.50
2022-12-18T15:39:04.747Z,28.55
2022-12-18T15:41:38.795Z,28.55
2022-12-18T15:44:25.322Z,28.59
2022-12-18T15:46:56.315Z,28.52
2022-12-18T15:49:27.026Z,28.50
2022-12-18T15:52:01.317Z,28.49
2022-12-18T15:54:50.034Z,28.50
2022-12-18T15:57:29.804Z,28.52
2022-12-18T16:00:00.908Z,28.43
2022-12-18T16:02:31.988Z,28.42
2022-12-18T16:05:02.654Z,28.46
2022-12-18T16:07:33.152Z,28.47
2022-12-18T16:10:05.610Z,28.40
2022-12-18T16:12:36.482Z,28.45
2022-12-18T16:15:11.283Z,28.42
2022-12-18T16:17:42.985Z,28.47
2022-12-18T16:20:22.634Z,28.45
2022-12-18T16:22:55.021Z,28.41
2022-12-18T16:25:30.006Z,28.38
2022-12-18T16:28:00.707Z,28.38
2022-12-18T16:30:37.417Z,28.36
2022-12-18T16:33:10.369Z,28.37
2022-12-18T16:35:41.131Z,28.34
2022-12-18T16:38:12.297Z,28.37
2022-12-18T16:41:02.685Z,28.39
2022-12-18T16:43:32.899Z,28.37
2022-12-18T16:46:04.498Z,28.38
2022-12-18T16:48:34.685Z,28.14
2022-12-18T16:51:07.223Z,28.06
2022-12-18T16:53:37.832Z,27.98
2022-12-18T16:56:09.013Z,27.97
2022-12-18T16:58:39.779Z,28.00
2022-12-18T17:01:14.805Z,27.93
2022-12-18T17:03:46.094Z,27.84
2022-12-18T17:06:17.696Z,27.91
2022-12-18T17:08:50.125Z,27.88
2022-12-18T17:11:21.082Z,27.84
2022-12-18T17:13:51.334Z,27.83
2022-12-18T17:16:22.353Z,27.75
2022-12-18T17:18:54.535Z,27.82
2022-12-18T17:21:28.042Z,27.77
2022-12-18T17:24:02.271Z,27.76
2022-12-18T17:26:32.813Z,27.67
2022-12-18T17:29:06.088Z,27.77
2022-12-18T17:31:36.815Z,27.68
2022-12-18T17:34:07.474Z,27.74
2022-12-18T17:36:37.844Z,27.65
2022-12-18T17:39:09.529Z,27.64
2022-12-18T17:41:40.130Z,27.59
2022-12-18T17:44:11.178Z,27.62
2022-12-18T17:46:46.926Z,27.65
2022-12-18T17:49:17.291Z,27.57
2022-12-18T17:51:48.455Z,27.54
2022-12-18T17:54:18.834Z,27.57
2022-12-18T17:56:49.180Z,27.54
2022-12-18T17:59:20.065Z,27.59
2022-12-18T18:01:50.580Z,27.62
2022-12-18T18:04:21.168Z,27.63
2022-12-18T18:06:51.490Z,27.58
2022-12-18T18:09:21.668Z,27.52
2022-12-18T18:12:10.195Z,27.59
2022-12-18T18:14:41.425Z,27.54
2022-12-18T18:17:11.711Z,27.50
2022-12-18T18:19:43.115Z,27.47
2022-12-18T18:22:16.311Z,27.50
2022-12-18T18:24:48.135Z,27.52
2022-12-18T18:27:18.650Z,27.48
2022-12-18T18:29:49.134Z,27.48
2022-12-18T18:32:19.370Z,27.48
2022-12-18T18:34:50.413Z,27.53
2022-12-18T18:37:20.798Z,27.52
2022-12-18T18:39:51.265Z,27.46
2022-12-18T18:42:24.624Z,27.47
2022-12-18T18:44:54.819Z,27.48
2022-12-18T18:47:25.806Z,27.45
2022-12-18T18:49:56.375Z,27.40
2022-12-18T18:52:27.773Z,27.44
2022-12-18T18:55:12.965Z,27.37
2022-12-18T18:57:43.982Z,27.38
2022-12-18T19:00:15.190Z,27.37
2022-12-18T19:02:45.827Z,27.41
2022-12-18T19:05:16.999Z,27.38
2022-12-18T19:07:47.158Z,27.34
2022-12-18T19:10:17.591Z,27.30
2022-12-18T19:13:07.060Z,27.35
2022-12-18T19:15:37.518Z,27.36
2022-12-18T19:18:10.820Z,27.38
2022-12-18T19:20:41.709Z,27.33
2022-12-18T19:23:12.514Z,27.36
2022-12-18T19:25:42.964Z,27.34
2022-12-18T19:28:21.997Z,27.39
2022-12-18T19:31:02.869Z,27.40
2022-12-18T19:33:45.898Z,27.32
2022-12-18T19:36:22.966Z,27.31
2022-12-18T19:38:55.284Z,27.24
2022-12-18T19:41:28.996Z,27.27
2022-12-18T19:44:06.023Z,27.31
2022-12-18T19:46:41.933Z,27.17
2022-12-18T19:49:17.321Z,27.22
2022-12-18T19:51:50.201Z,27.22
2022-12-18T19:54:21.209Z,27.27
2022-12-18T19:56:53.742Z,27.34
2022-12-18T19:59:24.802Z,27.22
2022-12-18T20:01:55.428Z,27.19
2022-12-18T20:04:26.279Z,27.22
2022-12-18T20:06:56.971Z,27.22
2022-12-18T20:09:27.567Z,27.19
2022-12-18T20:11:59.265Z,27.20
2022-12-18T20:14:29.549Z,27.21
2022-12-18T20:17:00.586Z,27.20
2022-12-18T20:19:34.435Z,27.16
2022-12-18T20:22:05.300Z,27.13
2022-12-18T20:24:36.965Z,27.17
2022-12-18T20:27:12.298Z,27.19
2022-12-18T20:29:45.288Z,27.16
2022-12-18T20:32:21.100Z,27.15
2022-12-18T20:34:51.326Z,27.16
2022-12-18T20:37:22.605Z,27.12
2022-12-18T20:39:54.038Z,27.14
2022-12-18T20:42:25.323Z,27.21
2022-12-18T20:44:55.798Z,27.10
2022-12-18T20:47:29.076Z,27.16
2022-12-18T20:50:01.794Z,27.12
2022-12-18T20:52:35.483Z,27.15
2022-12-18T20:55:07.760Z,27.20
2022-12-18T20:57:39.831Z,27.14
2022-12-18T21:00:12.046Z,27.16
2022-12-18T21:02:44.048Z,27.18
2022-12-18T21:05:18.008Z,27.18
2022-12-18T21:07:48.432Z,27.22
2022-12-18T21:10:19.130Z,27.10
2022-12-18T21:12:58.838Z,27.16
2022-12-18T21:15:32.635Z,27.21
2022-12-18T21:18:03.228Z,27.17
2022-12-18T21:20:33.712Z,27.19
2022-12-18T21:23:15.883Z,27.19
2022-12-18T21:25:46.993Z,27.14
2022-12-18T21:28:20.495Z,27.15
2022-12-18T21:30:55.356Z,27.18
2022-12-18T21:33:26.106Z,27.14
2022-12-18T21:35:56.714Z,27.15
2022-12-18T21:38:29.647Z,27.10
2022-12-18T21:41:00.645Z,27.08
2022-12-18T21:43:51.252Z,27.02
2022-12-18T21:46:24.090Z,27.10
2022-12-18T21:48:54.939Z,27.12
2022-12-18T21:51:29.223Z,27.11
2022-12-18T21:53:59.705Z,27.13
2022-12-18T21:56:58.191Z,27.13
2022-12-18T21:59:33.678Z,27.15
2022-12-18T22:02:07.633Z,27.16
2022-12-18T22:04:38.084Z,27.12
2022-12-18T22:07:10.626Z,27.05
2022-12-18T22:09:42.334Z,27.12
2022-12-18T22:12:34.418Z,27.11
2022-12-18T22:15:06.319Z,27.18
2022-12-18T22:17:37.019Z,27.07
2022-12-18T22:20:08.905Z,26.95
2022-12-18T22:22:39.083Z,26.96
2022-12-18T22:25:11.549Z,27.01
2022-12-18T22:27:41.869Z,27.08
2022-12-18T22:30:15.325Z,27.12
2022-12-18T22:32:45.751Z,27.13
2022-12-18T22:35:16.511Z,27.17
2022-12-18T22:37:46.888Z,27.13
2022-12-18T22:40:27.708Z,27.09
2022-12-18T22:42:59.169Z,27.12
2022-12-18T22:45:29.428Z,27.14
2022-12-18T22:48:00.127Z,27.13
2022-12-18T22:50:30.777Z,27.13
2022-12-18T22:53:02.046Z,27.09
2022-12-18T22:55:32.963Z,27.10
2022-12-18T22:58:04.362Z,27.16
2022-12-18T23:00:35.027Z,27.15
2022-12-18T23:03:05.897Z,27.04
2022-12-18T23:05:38.261Z,27.05
2022-12-18T23:08:08.437Z,27.05
2022-12-18T23:10:42.007Z,27.11
2022-12-18T23:13:12.760Z,27.07
2022-12-18T23:15:45.784Z,27.13
2022-12-18T23:18:16.271Z,27.08
2022-12-18T23:20:46.661Z,27.05
2022-12-18T23:23:21.590Z,27.04
2022-12-18T23:25:52.285Z,27.05
2022-12-18T23:28:24.512Z,27.07
2022-12-18T23:30:59.494Z,27.04
2022-12-18T23:33:32.750Z,27.09
2022-12-18T23:36:05.016Z,27.05
2022-12-18T23:38:35.946Z,27.17
2022-12-18T23:41:15.263Z,27.18
2022-12-18T23:43:46.147Z,27.08
2022-12-18T23:46:25.816Z,27.11
2022-12-18T23:48:59.326Z,27.22
2022-12-18T23:51:30.589Z,27.15
2022-12-18T23:54:02.413Z,27.15
2022-12-18T23:56:36.593Z,27.29
2022-12-18T23:59:38.717Z,27.32
